createdAt,value
2019-01-04T00:00:26.710Z,978.97
2019-01-04T00:02:19.609Z,978.97
2019-01-04T00:03:19.578Z,978.95
2019-01-04T00:05:13.044Z,978.98
2019-01-04T00:06:12.741Z,979.05
2019-01-04T00:08:05.879Z,979.03
2019-01-04T00:09:05.821Z,979.01
2019-01-04T00:10:58.699Z,979.04
2019-01-04T00:11:58.446Z,979.02
2019-01-04T00:13:52.126Z,978.99
2019-01-04T00:14:51.802Z,978.95
2019-01-04T00:16:45.507Z,978.90
2019-01-04T00:17:45.204Z,978.90
2019-01-04T00:19:38.298Z,978.91
2019-01-04T00:20:38.318Z,978.90
2019-01-04T00:22:31.192Z,978.83
2019-01-04T00:23:30.886Z,978.83
2019-01-04T00:25:24.564Z,978.76
2019-01-04T00:26:24.284Z,978.80
2019-01-04T00:28:17.442Z,978.80
2019-01-04T00:29:17.123Z,978.75
2019-01-04T00:31:10.919Z,978.72
2019-01-04T00:32:10.810Z,978.67
2019-01-04T00:34:03.792Z,978.74
2019-01-04T00:35:03.678Z,978.74
2019-01-04T00:36:56.566Z,978.72
2019-01-04T00:37:56.508Z,978.74
2019-01-04T00:39:50.042Z,978.74
2019-01-04T00:40:49.994Z,978.75
2019-01-04T00:42:43.463Z,978.83
2019-01-04T00:43:43.427Z,978.86
2019-01-04T00:45:36.835Z,978.83
2019-01-04T00:46:36.561Z,978.78
2019-01-04T00:48:29.718Z,978.80
2019-01-04T00:49:29.410Z,978.80
2019-01-04T00:51:23.143Z,978.80
2019-01-04T00:52:23.065Z,978.78
2019-01-04T00:54:16.613Z,978.82
2019-01-04T00:55:16.306Z,978.83
2019-01-04T00:57:09.507Z,978.88
2019-01-04T00:58:09.513Z,978.90
2019-01-04T01:00:02.384Z,978.87
2019-01-04T01:01:02.375Z,978.91
2019-01-04T01:02:55.314Z,978.88
2019-01-04T01:03:54.896Z,978.91
2019-01-04T01:05:48.734Z,979.00
2019-01-04T01:06:48.293Z,978.96
2019-01-04T01:08:42.142Z,979.04
2019-01-04T01:09:41.725Z,979.02
2019-01-04T01:11:35.471Z,979.03
2019-01-04T01:12:35.083Z,979.09
2019-01-04T01:14:28.934Z,979.07
2019-01-04T01:15:28.844Z,979.03
2019-01-04T01:17:22.326Z,979.11
2019-01-04T01:18:21.886Z,979.14
2019-01-04T01:20:15.667Z,979.15
2019-01-04T01:21:15.556Z,979.16
2019-01-04T01:23:08.503Z,979.15
2019-01-04T01:24:08.470Z,979.16
2019-01-04T01:26:01.865Z,979.20
2019-01-04T01:27:01.830Z,979.19
2019-01-04T01:28:01.806Z,979.24
2019-01-04T01:29:01.818Z,979.20
2019-01-04T01:30:01.798Z,979.23
2019-01-04T01:31:01.545Z,979.17
2019-01-04T01:32:01.839Z,979.18
2019-01-04T01:33:01.709Z,979.14
2019-01-04T01:34:01.732Z,979.18
2019-01-04T01:35:01.687Z,979.17
2019-01-04T01:36:01.473Z,979.18
2019-01-04T01:37:01.454Z,979.09
2019-01-04T01:38:01.448Z,979.14
2019-01-04T01:39:01.435Z,979.16
2019-01-04T01:40:01.440Z,979.17
2019-01-04T01:41:01.688Z,979.10
2019-01-04T01:42:01.628Z,979.14
2019-01-04T01:43:01.651Z,979.11
2019-01-04T01:44:01.653Z,979.12
2019-01-04T01:45:01.625Z,979.16
2019-01-04T01:46:01.360Z,979.11
2019-01-04T01:47:01.350Z,979.13
2019-01-04T01:48:01.347Z,979.09
2019-01-04T01:49:01.334Z,979.18
2019-01-04T01:50:01.325Z,979.12
2019-01-04T01:51:01.318Z,979.07
2019-01-04T01:52:01.304Z,979.11
2019-01-04T01:53:01.297Z,979.12
2019-01-04T01:54:01.283Z,979.05
2019-01-04T01:55:01.282Z,979.08
2019-01-04T01:56:01.289Z,979.02
2019-01-04T01:57:01.256Z,979.06
2019-01-04T01:58:01.260Z,979.06
2019-01-04T01:59:01.248Z,979.05
2019-01-04T02:00:01.237Z,979.08
2019-01-04T02:01:01.225Z,979.06
2019-01-04T02:02:01.210Z,979.08
2019-01-04T02:03:01.235Z,979.09
2019-01-04T02:04:01.193Z,979.05
2019-01-04T02:05:01.186Z,979.06
2019-01-04T02:06:01.188Z,979.10
2019-01-04T02:07:01.187Z,979.05
2019-01-04T02:08:01.172Z,979.07
2019-01-04T02:09:07.108Z,979.07
2019-01-04T02:10:01.141Z,979.09
2019-01-04T02:11:01.132Z,979.13
2019-01-04T02:12:01.123Z,979.13
2019-01-04T02:13:01.110Z,979.14
2019-01-04T02:14:01.101Z,979.16
2019-01-04T02:15:01.102Z,979.20
2019-01-04T02:16:01.083Z,979.17
2019-01-04T02:17:01.076Z,979.19
2019-01-04T02:18:01.064Z,979.25
2019-01-04T02:19:01.058Z,979.21
2019-01-04T02:20:01.047Z,979.27
2019-01-04T02:21:01.065Z,979.23
2019-01-04T02:22:01.027Z,979.28
2019-01-04T02:23:01.048Z,979.27
2019-01-04T02:24:01.009Z,979.32
2019-01-04T02:25:01.001Z,979.28
2019-01-04T02:26:00.991Z,979.25
2019-01-04T02:27:00.982Z,979.30
2019-01-04T02:28:00.975Z,979.24
2019-01-04T02:29:00.968Z,979.27
2019-01-04T02:30:00.962Z,979.28
2019-01-04T02:31:00.960Z,979.25
2019-01-04T02:32:00.946Z,979.28
2019-01-04T02:33:00.932Z,979.27
2019-01-04T02:34:00.923Z,979.28
2019-01-04T02:35:00.909Z,979.28
2019-01-04T02:36:00.932Z,979.32
2019-01-04T02:37:00.891Z,979.30
2019-01-04T02:38:00.882Z,979.28
2019-01-04T02:39:00.892Z,979.28
2019-01-04T02:40:00.866Z,979.27
2019-01-04T02:41:00.859Z,979.30
2019-01-04T02:42:00.846Z,979.28
2019-01-04T02:43:00.837Z,979.27
2019-01-04T02:44:00.846Z,979.22
2019-01-04T02:45:00.819Z,979.25
2019-01-04T02:46:00.813Z,979.26
2019-01-04T02:47:00.826Z,979.25
2019-01-04T02:48:00.798Z,979.20
2019-01-04T02:49:00.780Z,979.24
2019-01-04T02:50:00.772Z,979.19
2019-01-04T02:51:00.763Z,979.18
2019-01-04T02:52:00.759Z,979.20
2019-01-04T02:53:00.747Z,979.22
2019-01-04T02:54:00.736Z,979.21
2019-01-04T02:55:00.727Z,979.14
2019-01-04T02:56:00.718Z,979.20
2019-01-04T02:57:00.707Z,979.23
2019-01-04T02:58:00.699Z,979.17
2019-01-04T02:59:00.692Z,979.18
2019-01-04T03:00:00.686Z,979.18
2019-01-04T03:01:00.674Z,979.16
2019-01-04T03:02:00.663Z,979.12
2019-01-04T03:03:00.701Z,979.12
2019-01-04T03:04:00.647Z,979.11
2019-01-04T03:05:00.657Z,979.13
2019-01-04T03:06:00.627Z,979.17
2019-01-04T03:07:00.623Z,979.16
2019-01-04T03:08:00.609Z,979.17
2019-01-04T03:09:00.604Z,979.13
2019-01-04T03:10:00.590Z,979.15
2019-01-04T03:11:00.581Z,979.15
2019-01-04T03:12:00.582Z,979.17
2019-01-04T03:13:00.565Z,979.14
2019-01-04T03:14:00.556Z,979.11
2019-01-04T03:15:00.564Z,979.11
2019-01-04T03:16:00.538Z,979.11
2019-01-04T03:17:00.527Z,979.11
2019-01-04T03:18:00.522Z,979.08
2019-01-04T03:19:00.512Z,979.13
2019-01-04T03:20:00.507Z,979.11
2019-01-04T03:21:00.491Z,979.07
2019-01-04T03:22:00.486Z,979.07
2019-01-04T03:23:00.477Z,979.05
2019-01-04T03:24:00.468Z,979.05
2019-01-04T03:25:00.455Z,979.06
2019-01-04T03:26:00.455Z,979.03
2019-01-04T03:27:00.439Z,978.98
2019-01-04T03:28:00.428Z,978.97
2019-01-04T03:29:00.417Z,978.94
2019-01-04T03:30:00.474Z,978.91
2019-01-04T03:31:00.424Z,978.84
2019-01-04T03:32:00.395Z,978.83
2019-01-04T03:33:00.389Z,978.80
2019-01-04T03:34:00.374Z,978.82
2019-01-04T03:35:00.369Z,978.82
2019-01-04T03:36:00.373Z,978.79
2019-01-04T03:37:00.346Z,978.81
2019-01-04T03:38:00.370Z,978.75
2019-01-04T03:39:00.374Z,978.78
2019-01-04T03:40:00.415Z,978.76
2019-01-04T03:41:00.311Z,978.78
2019-01-04T03:42:00.304Z,978.77
2019-01-04T03:43:00.299Z,978.80
2019-01-04T03:44:00.284Z,978.79
2019-01-04T03:45:00.351Z,978.77
2019-01-04T03:46:00.268Z,978.78
2019-01-04T03:47:00.262Z,978.77
2019-01-04T03:48:00.249Z,978.74
2019-01-04T03:49:00.259Z,978.75
2019-01-04T03:50:00.233Z,978.72
2019-01-04T03:51:00.221Z,978.75
2019-01-04T03:52:00.220Z,978.73
2019-01-04T03:53:00.218Z,978.75
2019-01-04T03:54:00.191Z,978.73
2019-01-04T03:55:00.387Z,978.72
2019-01-04T03:56:00.179Z,978.70
2019-01-04T03:57:00.166Z,978.63
2019-01-04T03:58:00.158Z,978.65
2019-01-04T03:59:00.153Z,978.68
2019-01-04T04:00:00.164Z,978.66
2019-01-04T04:01:00.132Z,978.69
2019-01-04T04:02:00.123Z,978.73
2019-01-04T04:03:00.110Z,978.76
2019-01-04T04:04:00.104Z,978.72
2019-01-04T04:05:00.116Z,978.69
2019-01-04T04:06:00.084Z,978.73
2019-01-04T04:07:00.075Z,978.69
2019-01-04T04:08:00.066Z,978.67
2019-01-04T04:09:00.058Z,978.69
2019-01-04T04:10:00.561Z,978.70
2019-01-04T04:11:00.064Z,978.65
2019-01-04T04:12:00.032Z,978.71
2019-01-04T04:13:00.022Z,978.70
2019-01-04T04:14:00.012Z,978.66
2019-01-04T04:15:00.005Z,978.63
2019-01-04T04:15:59.993Z,978.62
2019-01-04T04:16:59.986Z,978.63
2019-01-04T04:17:59.978Z,978.65
2019-01-04T04:18:59.969Z,978.67
2019-01-04T04:19:59.960Z,978.65
2019-01-04T04:20:59.954Z,978.58
2019-01-04T04:21:59.942Z,978.61
2019-01-04T04:22:59.933Z,978.58
2019-01-04T04:23:59.923Z,978.62
2019-01-04T04:24:59.916Z,978.61
2019-01-04T04:25:59.903Z,978.61
2019-01-04T04:26:59.893Z,978.62
2019-01-04T04:27:59.889Z,978.63
2019-01-04T04:28:59.877Z,978.64
2019-01-04T04:29:59.869Z,978.59
2019-01-04T04:30:59.862Z,978.60
2019-01-04T04:31:59.867Z,978.58
2019-01-04T04:32:59.843Z,978.60
2019-01-04T04:33:59.831Z,978.61
2019-01-04T04:34:59.824Z,978.59
2019-01-04T04:35:59.828Z,978.59
2019-01-04T04:36:59.803Z,978.55
2019-01-04T04:37:59.796Z,978.52
2019-01-04T04:38:59.789Z,978.55
2019-01-04T04:39:59.785Z,978.51
2019-01-04T04:40:59.768Z,978.55
2019-01-04T04:41:59.822Z,978.53
2019-01-04T04:42:59.953Z,978.51
2019-01-04T04:43:59.743Z,978.51
2019-01-04T04:44:59.734Z,978.48
2019-01-04T04:45:59.724Z,978.52
2019-01-04T04:46:59.720Z,978.50
2019-01-04T04:47:59.722Z,978.51
2019-01-04T04:48:59.698Z,978.51
2019-01-04T04:49:59.694Z,978.52
2019-01-04T04:50:59.678Z,978.53
2019-01-04T04:51:59.671Z,978.50
2019-01-04T04:52:59.666Z,978.50
2019-01-04T04:53:59.650Z,978.52
2019-01-04T04:54:59.644Z,978.45
2019-01-04T04:55:59.633Z,978.51
2019-01-04T04:56:59.624Z,978.43
2019-01-04T04:57:59.631Z,978.40
2019-01-04T04:58:59.607Z,978.45
2019-01-04T04:59:59.601Z,978.50
2019-01-04T05:00:59.699Z,978.50
2019-01-04T05:01:59.601Z,978.45
2019-01-04T05:02:59.641Z,978.47
2019-01-04T05:03:59.613Z,978.42
2019-01-04T05:04:59.665Z,978.41
2019-01-04T05:05:59.542Z,978.40
2019-01-04T05:06:59.533Z,978.36
2019-01-04T05:07:59.524Z,978.36
2019-01-04T05:08:59.516Z,978.33
2019-01-04T05:09:59.508Z,978.34
2019-01-04T05:10:59.496Z,978.29
2019-01-04T05:11:59.502Z,978.30
2019-01-04T05:12:59.480Z,978.32
2019-01-04T05:13:59.470Z,978.27
2019-01-04T05:14:59.461Z,978.25
2019-01-04T05:15:59.454Z,978.26
2019-01-04T05:16:59.443Z,978.26
2019-01-04T05:17:59.432Z,978.22
2019-01-04T05:18:59.426Z,978.18
2019-01-04T05:19:59.416Z,978.21
2019-01-04T05:20:59.424Z,978.19
2019-01-04T05:21:59.398Z,978.16
2019-01-04T05:22:59.388Z,978.19
2019-01-04T05:23:59.380Z,978.23
2019-01-04T05:24:59.370Z,978.23
2019-01-04T05:25:59.369Z,978.23
2019-01-04T05:26:59.358Z,978.21
2019-01-04T05:27:59.344Z,978.24
2019-01-04T05:28:59.333Z,978.26
2019-01-04T05:29:59.330Z,978.27
2019-01-04T05:30:59.316Z,978.28
2019-01-04T05:31:59.318Z,978.26
2019-01-04T05:32:59.296Z,978.24
2019-01-04T05:33:59.288Z,978.24
2019-01-04T05:34:59.285Z,978.22
2019-01-04T05:35:59.281Z,978.22
2019-01-04T05:36:59.259Z,978.24
2019-01-04T05:37:59.250Z,978.21
2019-01-04T05:38:59.242Z,978.18
2019-01-04T05:39:59.234Z,978.18
2019-01-04T05:40:59.222Z,978.18
2019-01-04T05:41:59.213Z,978.20
2019-01-04T05:42:59.206Z,978.18
2019-01-04T05:43:59.203Z,978.21
2019-01-04T05:44:59.190Z,978.17
2019-01-04T05:45:59.178Z,978.15
2019-01-04T05:46:59.170Z,978.14
2019-01-04T05:47:59.160Z,978.15
2019-01-04T05:48:59.162Z,978.16
2019-01-04T05:49:59.139Z,978.12
2019-01-04T05:50:59.132Z,978.08
2019-01-04T05:51:59.120Z,978.15
2019-01-04T05:52:59.111Z,978.16
2019-01-04T05:53:59.110Z,978.07
2019-01-04T05:54:59.094Z,978.11
2019-01-04T05:55:59.085Z,978.07
2019-01-04T05:56:59.084Z,978.06
2019-01-04T05:57:59.065Z,978.06
2019-01-04T05:58:59.057Z,978.12
2019-01-04T05:59:59.100Z,978.14
2019-01-04T06:00:59.039Z,978.11
2019-01-04T06:01:59.026Z,978.14
2019-01-04T06:02:59.019Z,978.13
2019-01-04T06:03:59.017Z,978.11
2019-01-04T06:04:59.001Z,978.11
2019-01-04T06:05:58.992Z,978.11
2019-01-04T06:06:58.980Z,978.08
2019-01-04T06:07:58.972Z,978.12
2019-01-04T06:08:58.968Z,978.14
2019-01-04T06:09:58.959Z,978.10
2019-01-04T06:10:58.945Z,978.07
2019-01-04T06:11:58.934Z,978.06
2019-01-04T06:12:58.925Z,978.05
2019-01-04T06:13:58.915Z,978.08
2019-01-04T06:14:58.909Z,978.03
2019-01-04T06:15:58.900Z,978.05
2019-01-04T06:16:58.888Z,978.03
2019-01-04T06:17:58.880Z,978.06
2019-01-04T06:18:58.870Z,978.07
2019-01-04T06:19:58.862Z,978.06
2019-01-04T06:20:58.855Z,978.13
2019-01-04T06:21:58.847Z,978.11
2019-01-04T06:22:58.860Z,978.12
2019-01-04T06:23:58.826Z,978.12
2019-01-04T06:24:58.815Z,978.09
2019-01-04T06:25:58.808Z,978.10
2019-01-04T06:26:58.799Z,978.09
2019-01-04T06:27:58.786Z,978.18
2019-01-04T06:28:58.786Z,978.15
2019-01-04T06:29:58.770Z,978.12
2019-01-04T06:30:58.763Z,978.11
2019-01-04T06:31:58.757Z,978.11
2019-01-04T06:32:58.746Z,978.12
2019-01-04T06:33:58.734Z,978.09
2019-01-04T06:34:58.738Z,978.15
2019-01-04T06:35:58.721Z,978.13
2019-01-04T06:36:58.706Z,978.15
2019-01-04T06:37:59.963Z,978.12
2019-01-04T06:38:58.692Z,978.16
2019-01-04T06:39:58.682Z,978.17
2019-01-04T06:40:58.671Z,978.16
2019-01-04T06:41:58.671Z,978.20
2019-01-04T06:42:58.654Z,978.23
2019-01-04T06:43:58.645Z,978.25
2019-01-04T06:44:58.638Z,978.30
2019-01-04T06:45:58.631Z,978.28
2019-01-04T06:46:58.618Z,978.27
2019-01-04T06:47:58.610Z,978.28
2019-01-04T06:48:58.599Z,978.23
2019-01-04T06:49:58.591Z,978.25
2019-01-04T06:50:58.583Z,978.24
2019-01-04T06:51:58.576Z,978.28
2019-01-04T06:52:58.565Z,978.22
2019-01-04T06:53:58.559Z,978.24
2019-01-04T06:54:58.545Z,978.26
2019-01-04T06:55:58.546Z,978.28
2019-01-04T06:56:58.529Z,978.29
2019-01-04T06:57:58.521Z,978.28
2019-01-04T06:58:58.511Z,978.27
2019-01-04T06:59:58.502Z,978.25
2019-01-04T07:00:58.500Z,978.26
2019-01-04T07:01:58.482Z,978.31
2019-01-04T07:02:58.474Z,978.33
2019-01-04T07:03:58.467Z,978.31
2019-01-04T07:04:58.457Z,978.35
2019-01-04T07:05:58.447Z,978.38
2019-01-04T07:06:58.438Z,978.40
2019-01-04T07:07:58.430Z,978.45
2019-01-04T07:08:58.422Z,978.44
2019-01-04T07:09:58.411Z,978.43
2019-01-04T07:10:58.403Z,978.47
2019-01-04T07:11:58.411Z,978.47
2019-01-04T07:12:58.384Z,978.47
2019-01-04T07:13:58.379Z,978.51
2019-01-04T07:14:58.368Z,978.52
2019-01-04T07:15:58.358Z,978.57
2019-01-04T07:16:58.351Z,978.55
2019-01-04T07:17:58.340Z,978.58
2019-01-04T07:18:58.334Z,978.54
2019-01-04T07:19:58.325Z,978.56
2019-01-04T07:20:58.340Z,978.51
2019-01-04T07:21:58.303Z,978.51
2019-01-04T07:22:58.294Z,978.55
2019-01-04T07:23:58.286Z,978.53
2019-01-04T07:24:58.279Z,978.58
2019-01-04T07:25:58.276Z,978.62
2019-01-04T07:26:58.262Z,978.67
2019-01-04T07:27:58.279Z,978.67
2019-01-04T07:28:58.242Z,978.70
2019-01-04T07:29:58.232Z,978.72
2019-01-04T07:30:58.223Z,978.73
2019-01-04T07:31:58.217Z,978.69
2019-01-04T07:32:58.207Z,978.70
2019-01-04T07:33:58.210Z,978.67
2019-01-04T07:34:58.191Z,978.66
2019-01-04T07:35:58.193Z,978.68
2019-01-04T07:36:58.213Z,978.64
2019-01-04T07:37:58.164Z,978.69
2019-01-04T07:38:58.159Z,978.70
2019-01-04T07:39:58.154Z,978.72
2019-01-04T07:40:58.143Z,978.69
2019-01-04T07:41:58.126Z,978.69
2019-01-04T07:43:00.084Z,978.76
2019-01-04T07:43:58.211Z,978.69
2019-01-04T07:44:58.118Z,978.69
2019-01-04T07:45:58.100Z,978.66
2019-01-04T07:46:58.095Z,978.66
2019-01-04T07:47:58.102Z,978.73
2019-01-04T07:48:58.064Z,978.72
2019-01-04T07:49:58.056Z,978.70
2019-01-04T07:50:58.051Z,978.74
2019-01-04T07:51:58.039Z,978.70
2019-01-04T07:52:58.028Z,978.73
2019-01-04T07:53:58.018Z,978.77
2019-01-04T07:54:58.012Z,978.73
2019-01-04T07:55:58.005Z,978.68
2019-01-04T07:56:57.993Z,978.74
2019-01-04T07:57:57.983Z,978.79
2019-01-04T07:58:57.973Z,978.78
2019-01-04T07:59:57.970Z,978.81
2019-01-04T08:00:57.955Z,978.78
2019-01-04T08:01:57.951Z,978.81
2019-01-04T08:02:57.947Z,978.79
2019-01-04T08:03:57.953Z,978.78
2019-01-04T08:04:57.922Z,978.77
2019-01-04T08:05:57.921Z,978.78
2019-01-04T08:06:57.908Z,978.81
2019-01-04T08:07:57.901Z,978.80
2019-01-04T08:08:57.885Z,978.82
2019-01-04T08:09:57.878Z,978.75
2019-01-04T08:10:57.868Z,978.68
2019-01-04T08:11:57.863Z,978.71
2019-01-04T08:12:57.851Z,978.73
2019-01-04T08:13:57.845Z,978.73
2019-01-04T08:14:57.834Z,978.75
2019-01-04T08:15:57.825Z,978.77
2019-01-04T08:16:57.814Z,978.79
2019-01-04T08:17:57.808Z,978.81
2019-01-04T08:18:57.805Z,978.79
2019-01-04T08:19:57.832Z,978.83
2019-01-04T08:20:57.780Z,978.84
2019-01-04T08:21:57.771Z,978.85
2019-01-04T08:22:57.785Z,978.86
2019-01-04T08:23:57.756Z,978.91
2019-01-04T08:24:57.745Z,978.89
2019-01-04T08:25:57.734Z,978.87
2019-01-04T08:26:57.734Z,978.80
2019-01-04T08:27:57.719Z,978.79
2019-01-04T08:28:57.706Z,978.78
2019-01-04T08:29:57.698Z,978.79
2019-01-04T08:30:57.729Z,978.74
2019-01-04T08:31:57.682Z,978.73
2019-01-04T08:32:57.671Z,978.73
2019-01-04T08:33:57.663Z,978.77
2019-01-04T08:34:57.675Z,978.70
2019-01-04T08:35:57.717Z,978.75
2019-01-04T08:36:57.659Z,978.71
2019-01-04T08:37:57.647Z,978.63
2019-01-04T08:38:57.620Z,978.58
2019-01-04T08:39:57.610Z,978.58
2019-01-04T08:40:57.600Z,978.59
2019-01-04T08:41:57.590Z,978.63
2019-01-04T08:42:57.582Z,978.58
2019-01-04T08:43:57.580Z,978.59
2019-01-04T08:44:57.579Z,978.59
2019-01-04T08:45:57.558Z,978.58
2019-01-04T08:46:57.546Z,978.55
2019-01-04T08:47:57.554Z,978.48
2019-01-04T08:48:57.528Z,978.45
2019-01-04T08:49:57.524Z,978.41
2019-01-04T08:50:57.514Z,978.39
2019-01-04T08:51:57.503Z,978.36
2019-01-04T08:52:57.497Z,978.30
2019-01-04T08:53:57.497Z,978.33
2019-01-04T08:54:57.478Z,978.28
2019-01-04T08:55:57.468Z,978.26
2019-01-04T08:56:57.458Z,978.24
2019-01-04T08:57:57.462Z,978.19
2019-01-04T08:58:57.440Z,978.20
2019-01-04T08:59:57.434Z,978.14
2019-01-04T09:00:57.427Z,978.13
2019-01-04T09:01:57.426Z,978.13
2019-01-04T09:02:57.406Z,978.14
2019-01-04T09:03:57.422Z,978.12
2019-01-04T09:04:57.392Z,978.10
2019-01-04T09:05:57.383Z,978.12
2019-01-04T09:06:57.391Z,978.07
2019-01-04T09:07:57.366Z,978.09
2019-01-04T09:08:57.386Z,978.09
2019-01-04T09:09:57.380Z,978.09
2019-01-04T09:10:57.338Z,978.04
2019-01-04T09:12:05.709Z,978.14
2019-01-04T09:13:51.611Z,978.06
2019-01-04T09:14:51.680Z,978.04
2019-01-04T09:16:44.077Z,978.05
2019-01-04T09:17:43.854Z,978.05
2019-01-04T09:19:36.822Z,978.02
2019-01-04T09:20:36.566Z,977.89
2019-01-04T09:22:30.314Z,977.90
2019-01-04T09:23:30.208Z,977.92
2019-01-04T09:25:24.161Z,977.90
2019-01-04T09:26:24.059Z,977.95
2019-01-04T09:28:18.166Z,978.00
2019-01-04T09:29:18.129Z,977.99
2019-01-04T09:31:10.299Z,978.00
2019-01-04T09:32:10.941Z,977.99
2019-01-04T09:34:05.441Z,978.01
2019-01-04T09:35:04.243Z,978.04
2019-01-04T09:36:58.114Z,978.14
2019-01-04T09:37:57.142Z,978.15
2019-01-04T09:39:54.026Z,978.19
2019-01-04T09:40:50.951Z,978.21
2019-01-04T09:42:43.577Z,978.30
2019-01-04T09:43:43.417Z,978.31
2019-01-04T09:45:43.218Z,978.32
2019-01-04T09:46:37.271Z,978.29
2019-01-04T09:47:38.884Z,978.21
2019-01-04T09:48:36.731Z,978.23
2019-01-04T09:49:36.962Z,978.14
2019-01-04T09:50:36.601Z,978.17
2019-01-04T09:51:37.771Z,978.16
2019-01-04T09:52:38.024Z,978.12
2019-01-04T09:53:38.034Z,978.03
2019-01-04T09:54:37.324Z,978.00
2019-01-04T09:55:35.795Z,977.99
2019-01-04T09:56:35.753Z,977.87
2019-01-04T09:57:35.744Z,977.90
2019-01-04T09:58:35.719Z,977.84
2019-01-04T09:59:35.710Z,977.82
2019-01-04T10:02:31.568Z,977.72
2019-01-04T10:03:36.705Z,977.64
2019-01-04T10:05:22.437Z,977.68
2019-01-04T10:06:22.031Z,977.62
2019-01-04T10:08:16.246Z,977.62
2019-01-04T10:09:16.005Z,977.59
2019-01-04T10:11:10.082Z,977.68
2019-01-04T10:12:10.918Z,977.79
2019-01-04T10:14:03.846Z,977.54
2019-01-04T10:15:03.248Z,977.52
2019-01-04T10:16:56.731Z,977.51
2019-01-04T10:17:56.006Z,977.51
2019-01-04T10:19:51.733Z,977.44
2019-01-04T10:20:49.167Z,977.43
2019-01-04T10:22:42.856Z,977.38
2019-01-04T10:23:42.853Z,977.43
2019-01-04T10:25:37.633Z,977.31
2019-01-04T10:26:37.429Z,977.27
2019-01-04T10:28:30.410Z,977.22
2019-01-04T10:29:30.966Z,977.23
2019-01-04T10:31:22.713Z,977.19
2019-01-04T10:32:22.502Z,977.17
2019-01-04T10:33:29.909Z,977.08
2019-01-04T10:35:17.131Z,977.00
2019-01-04T10:36:16.425Z,976.95
2019-01-04T10:38:09.465Z,976.91
2019-01-04T10:39:09.792Z,976.97
2019-01-04T10:41:02.803Z,976.82
2019-01-04T10:42:02.703Z,976.76
2019-01-04T10:43:56.750Z,976.85
2019-01-04T10:44:57.263Z,976.89
2019-01-04T10:48:00.655Z,976.72
2019-01-04T10:48:58.929Z,976.69
2019-01-04T10:50:44.262Z,976.77
2019-01-04T10:51:45.707Z,976.70
2019-01-04T10:53:36.773Z,976.60
2019-01-04T10:54:36.859Z,976.64
2019-01-04T10:56:29.976Z,976.68
2019-01-04T10:57:30.704Z,976.65
2019-01-04T10:59:23.175Z,976.51
2019-01-04T11:00:23.352Z,976.48
2019-01-04T11:02:16.966Z,976.42
2019-01-04T11:03:17.329Z,976.45
2019-01-04T11:43:49.182Z,975.86
2019-01-04T11:44:56.543Z,975.82
2019-01-04T11:46:42.084Z,975.98
2019-01-04T11:47:41.820Z,975.97
2019-01-04T11:49:35.189Z,975.95
2019-01-04T11:50:34.949Z,975.87
2019-01-04T11:52:31.143Z,975.80
2019-01-04T11:53:27.792Z,975.85
2019-01-04T11:55:22.466Z,975.87
2019-01-04T11:56:20.899Z,975.88
2019-01-04T11:58:14.395Z,975.78
2019-01-04T11:59:14.097Z,975.91
2019-01-04T12:01:06.907Z,975.94
2019-01-04T12:02:14.296Z,975.90
2019-01-04T12:03:59.806Z,975.77
2019-01-04T12:04:59.728Z,975.79
2019-01-04T12:06:52.559Z,975.80
2019-01-04T12:07:52.291Z,975.75
2019-01-04T12:09:47.888Z,975.73
2019-01-04T12:10:46.456Z,975.71
2019-01-04T12:11:46.139Z,975.77
2019-01-04T12:12:46.170Z,975.76
2019-01-04T12:13:46.354Z,975.69
2019-01-04T12:14:46.189Z,975.66
2019-01-04T12:15:46.076Z,975.64
2019-01-04T12:16:46.067Z,975.65
2019-01-04T12:17:46.110Z,975.59
2019-01-04T12:18:46.160Z,975.55
2019-01-04T12:19:46.195Z,975.55
2019-01-04T12:20:46.038Z,975.54
2019-01-04T12:21:46.137Z,975.55
2019-01-04T12:22:46.369Z,975.44
2019-01-04T12:23:46.103Z,975.42
2019-01-04T12:24:46.078Z,975.48
2019-01-04T12:25:46.136Z,975.45
2019-01-04T12:26:45.988Z,975.47
2019-01-04T12:27:46.053Z,975.46
2019-01-04T12:28:46.023Z,975.51
2019-01-04T12:29:46.075Z,975.47
2019-01-04T12:30:46.027Z,975.45
2019-01-04T12:31:46.093Z,975.37
2019-01-04T12:32:45.940Z,975.32
2019-01-04T12:33:45.932Z,975.33
2019-01-04T12:34:46.129Z,975.33
2019-01-04T12:35:45.919Z,975.38
2019-01-04T12:36:45.910Z,975.35
2019-01-04T12:37:45.925Z,975.33
2019-01-04T12:38:45.900Z,975.29
2019-01-04T12:39:45.885Z,975.30
2019-01-04T12:40:45.910Z,975.29
2019-01-04T12:41:45.943Z,975.25
2019-01-04T12:42:45.936Z,975.28
2019-01-04T12:43:47.943Z,975.30
2019-01-04T12:44:45.848Z,975.35
2019-01-04T12:45:45.976Z,975.40
2019-01-04T12:46:53.384Z,975.38
2019-01-04T12:48:39.345Z,975.34
2019-01-04T12:49:38.759Z,975.30
2019-01-04T12:51:32.440Z,975.28
2019-01-04T12:52:32.282Z,975.33
2019-01-04T12:53:32.193Z,975.26
2019-01-04T12:54:32.147Z,975.27
2019-01-04T12:55:33.293Z,975.22
2019-01-04T12:56:32.104Z,975.27
2019-01-04T12:57:32.139Z,975.29
2019-01-04T12:58:32.142Z,975.25
2019-01-04T12:59:32.083Z,975.23
2019-01-04T13:00:32.072Z,975.23
2019-01-04T13:01:32.126Z,975.09
2019-01-04T13:02:32.070Z,974.99
2019-01-04T13:03:32.048Z,974.91
2019-01-04T13:04:32.072Z,974.92
2019-01-04T13:06:25.514Z,974.86
2019-01-04T13:07:25.467Z,974.90
2019-01-04T13:08:32.933Z,974.91
2019-01-04T13:10:19.249Z,974.81
2019-01-04T13:11:18.909Z,974.87
2019-01-04T13:13:12.619Z,974.91
2019-01-04T13:14:12.338Z,974.84
2019-01-04T13:16:06.155Z,974.85
2019-01-04T13:17:05.748Z,974.79
2019-01-04T13:19:00.389Z,974.84
2019-01-04T13:20:00.092Z,974.83
2019-01-04T13:21:53.920Z,974.78
2019-01-04T13:22:53.923Z,974.84
2019-01-04T13:24:47.779Z,974.81
2019-01-04T13:25:47.537Z,974.84
2019-01-04T13:27:40.737Z,974.81
2019-01-04T13:28:40.297Z,974.88
2019-01-04T13:30:34.035Z,974.91
2019-01-04T13:31:33.813Z,974.96
2019-01-04T13:33:27.634Z,974.87
2019-01-04T13:34:27.260Z,974.85
2019-01-04T13:36:20.963Z,974.83
2019-01-04T13:37:20.629Z,974.85
2019-01-04T13:39:14.380Z,974.74
2019-01-04T13:40:14.038Z,974.70
2019-01-04T13:42:07.735Z,974.70
2019-01-04T13:43:07.502Z,974.59
2019-01-04T13:44:07.399Z,974.62
2019-01-04T13:45:07.412Z,974.56
2019-01-04T13:46:07.829Z,974.63
2019-01-04T13:47:07.827Z,974.61
2019-01-04T13:48:07.781Z,974.64
2019-01-04T13:49:08.196Z,974.56
2019-01-04T13:50:14.903Z,974.64
2019-01-04T13:52:03.095Z,974.60
2019-01-04T13:53:03.148Z,974.57
2019-01-04T13:54:01.102Z,974.58
2019-01-04T13:55:08.310Z,974.65
2019-01-04T13:56:54.780Z,974.56
2019-01-04T13:57:54.089Z,974.56
2019-01-04T13:59:50.092Z,974.51
2019-01-04T14:00:57.020Z,974.44
2019-01-04T14:02:43.488Z,974.42
2019-01-04T14:03:43.301Z,974.42
2019-01-04T14:05:36.382Z,974.43
2019-01-04T14:06:43.308Z,974.45
2019-01-04T14:08:29.945Z,974.47
2019-01-04T14:09:29.339Z,974.42
2019-01-04T14:10:37.551Z,974.40
2019-01-04T14:12:23.029Z,974.42
2019-01-04T14:13:22.981Z,974.50
2019-01-04T14:15:16.692Z,974.48
2019-01-04T14:16:16.275Z,974.45
2019-01-04T14:18:09.850Z,974.39
2019-01-04T14:19:09.836Z,974.47
2019-01-04T14:21:03.315Z,974.39
2019-01-04T14:22:03.391Z,974.43
2019-01-04T14:23:56.711Z,974.43
2019-01-04T14:24:59.188Z,974.40
2019-01-04T14:26:49.563Z,974.33
2019-01-04T14:27:49.346Z,974.35
2019-01-04T14:28:49.349Z,974.26
2019-01-04T14:29:49.674Z,974.25
2019-01-04T14:30:56.838Z,974.21
2019-01-04T14:32:42.531Z,974.14
2019-01-04T14:33:42.311Z,974.14
2019-01-04T14:35:35.876Z,974.21
2019-01-04T14:36:35.615Z,974.19
2019-01-04T14:37:35.626Z,974.22
2019-01-04T14:38:35.531Z,974.15
2019-01-04T14:39:35.564Z,974.16